sensor_id;sensor_type;location;lat;lon;timestamp;pressure;altitude;pressure_sealevel;temperature;humidity
60240;BME280;46102;39.012;-7.064;2024-02-21T00:01:22;99551.25;;;13.89;66.04
60240;BME280;46102;39.012;-7.064;2024-02-21T00:03:23;99545.25;;;13.87;66.07
60240;BME280;46102;39.012;-7.064;2024-02-21T00:05:23;99546.09;;;13.87;66.30
60240;BME280;46102;39.012;-7.064;2024-02-21T00:07:24;99547.53;;;13.85;66.73
60240;BME280;46102;39.012;-7.064;2024-02-21T00:09:25;99542.94;;;13.80;66.86
60240;BME280;46102;39.012;-7.064;2024-02-21T00:11:26;99541.94;;;13.76;67.17
60240;BME280;46102;39.012;-7.064;2024-02-21T00:13:26;99541.94;;;13.76;67.20
60240;BME280;46102;39.012;-7.064;2024-02-21T00:15:27;99539.38;;;13.80;67.00
60240;BME280;46102;39.012;-7.064;2024-02-21T00:17:28;99535.78;;;13.79;67.10
60240;BME280;46102;39.012;-7.064;2024-02-21T00:19:29;99540.81;;;13.77;67.07
60240;BME280;46102;39.012;-7.064;2024-02-21T00:21:29;99530.91;;;13.76;67.03
60240;BME280;46102;39.012;-7.064;2024-02-21T00:23:30;99536.44;;;13.76;67.04
60240;BME280;46102;39.012;-7.064;2024-02-21T00:25:31;99529.63;;;13.73;67.25
60240;BME280;46102;39.012;-7.064;2024-02-21T00:27:32;99537.03;;;13.73;67.08
60240;BME280;46102;39.012;-7.064;2024-02-21T00:29:32;99536.88;;;13.69;67.11
60240;BME280;46102;39.012;-7.064;2024-02-21T00:31:34;99533.28;;;13.69;66.99
60240;BME280;46102;39.012;-7.064;2024-02-21T00:33:35;99541.56;;;13.69;67.15
60240;BME280;46102;39.012;-7.064;2024-02-21T00:35:36;99533.63;;;13.67;66.91
60240;BME280;46102;39.012;-7.064;2024-02-21T00:37:37;99538.78;;;13.69;66.84
60240;BME280;46102;39.012;-7.064;2024-02-21T00:39:37;99523.41;;;13.68;66.93
60240;BME280;46102;39.012;-7.064;2024-02-21T00:41:38;99524.53;;;13.67;66.84
60240;BME280;46102;39.012;-7.064;2024-02-21T00:43:39;99516.75;;;13.69;66.52
60240;BME280;46102;39.012;-7.064;2024-02-21T00:45:40;99515.31;;;13.71;66.33
60240;BME280;46102;39.012;-7.064;2024-02-21T00:47:40;99521.16;;;13.70;66.31
60240;BME280;46102;39.012;-7.064;2024-02-21T00:49:41;99519.19;;;13.70;66.42
60240;BME280;46102;39.012;-7.064;2024-02-21T00:51:42;99518.38;;;13.70;66.33
60240;BME280;46102;39.012;-7.064;2024-02-21T00:53:43;99517.38;;;13.66;66.77
60240;BME280;46102;39.012;-7.064;2024-02-21T00:55:43;99510.06;;;13.61;66.98
60240;BME280;46102;39.012;-7.064;2024-02-21T00:57:44;99509.53;;;13.59;67.13
60240;BME280;46102;39.012;-7.064;2024-02-21T00:59:45;99504.97;;;13.54;67.28
60240;BME280;46102;39.012;-7.064;2024-02-21T01:01:45;99497.66;;;13.50;67.77
60240;BME280;46102;39.012;-7.064;2024-02-21T01:03:46;99501.56;;;13.49;67.87
60240;BME280;46102;39.012;-7.064;2024-02-21T01:05:47;99508.03;;;13.53;67.78
60240;BME280;46102;39.012;-7.064;2024-02-21T01:07:48;99507.72;;;13.54;67.51
60240;BME280;46102;39.012;-7.064;2024-02-21T01:09:49;99510.50;;;13.54;67.53
60240;BME280;46102;39.012;-7.064;2024-02-21T01:11:51;99503.97;;;13.50;67.74
60240;BME280;46102;39.012;-7.064;2024-02-21T01:13:52;99513.88;;;13.51;68.03
60240;BME280;46102;39.012;-7.064;2024-02-21T01:15:52;99516.31;;;13.53;67.87
60240;BME280;46102;39.012;-7.064;2024-02-21T01:17:54;99507.22;;;13.52;68.06
60240;BME280;46102;39.012;-7.064;2024-02-21T01:19:55;99506.34;;;13.43;67.90
60240;BME280;46102;39.012;-7.064;2024-02-21T01:21:56;99506.28;;;13.35;68.21
60240;BME280;46102;39.012;-7.064;2024-02-21T01:23:56;99509.28;;;13.24;68.68
60240;BME280;46102;39.012;-7.064;2024-02-21T01:25:57;99503.81;;;13.10;69.29
60240;BME280;46102;39.012;-7.064;2024-02-21T01:27:58;99509.75;;;13.04;69.41
60240;BME280;46102;39.012;-7.064;2024-02-21T01:29:59;99499.16;;;12.97;69.76
60240;BME280;46102;39.012;-7.064;2024-02-21T01:31:59;99496.50;;;12.92;70.35
60240;BME280;46102;39.012;-7.064;2024-02-21T01:34:00;99497.13;;;12.89;70.58
60240;BME280;46102;39.012;-7.064;2024-02-21T01:36:04;99496.09;;;12.85;71.06
60240;BME280;46102;39.012;-7.064;2024-02-21T01:38:07;99499.78;;;12.80;71.63
60240;BME280;46102;39.012;-7.064;2024-02-21T01:40:08;99500.09;;;12.79;72.12
60240;BME280;46102;39.012;-7.064;2024-02-21T01:42:09;99496.84;;;12.77;72.27
60240;BME280;46102;39.012;-7.064;2024-02-21T01:44:09;99490.22;;;12.78;72.09
60240;BME280;46102;39.012;-7.064;2024-02-21T01:46:11;99489.41;;;12.77;72.94
60240;BME280;46102;39.012;-7.064;2024-02-21T01:48:12;99489.41;;;12.77;72.43
60240;BME280;46102;39.012;-7.064;2024-02-21T01:50:14;99487.47;;;12.78;71.89
60240;BME280;46102;39.012;-7.064;2024-02-21T01:52:16;99490.50;;;12.76;72.51
60240;BME280;46102;39.012;-7.064;2024-02-21T01:54:18;99494.53;;;12.70;72.71
60240;BME280;46102;39.012;-7.064;2024-02-21T01:56:19;99494.31;;;12.66;73.01
60240;BME280;46102;39.012;-7.064;2024-02-21T01:58:21;99490.03;;;12.60;73.54
60240;BME280;46102;39.012;-7.064;2024-02-21T02:00:22;99491.88;;;12.51;74.67
60240;BME280;46102;39.012;-7.064;2024-02-21T02:02:24;99497.50;;;12.46;74.93
60240;BME280;46102;39.012;-7.064;2024-02-21T02:04:25;99496.19;;;12.43;75.84
60240;BME280;46102;39.012;-7.064;2024-02-21T02:06:27;99496.69;;;12.45;75.97
60240;BME280;46102;39.012;-7.064;2024-02-21T02:08:28;99496.97;;;12.44;76.02
60240;BME280;46102;39.012;-7.064;2024-02-21T02:10:28;99485.25;;;12.38;76.67
60240;BME280;46102;39.012;-7.064;2024-02-21T02:12:29;99489.94;;;12.38;76.79
60240;BME280;46102;39.012;-7.064;2024-02-21T02:14:30;99486.59;;;12.41;76.96
60240;BME280;46102;39.012;-7.064;2024-02-21T02:16:31;99488.44;;;12.45;76.43
60240;BME280;46102;39.012;-7.064;2024-02-21T02:18:32;99480.88;;;12.51;75.78
60240;BME280;46102;39.012;-7.064;2024-02-21T02:20:32;99471.81;;;12.50;75.55
60240;BME280;46102;39.012;-7.064;2024-02-21T02:22:36;99476.28;;;12.46;75.34
60240;BME280;46102;39.012;-7.064;2024-02-21T02:24:38;99466.72;;;12.44;75.53
60240;BME280;46102;39.012;-7.064;2024-02-21T02:26:39;99474.16;;;12.43;75.75
60240;BME280;46102;39.012;-7.064;2024-02-21T02:28:40;99476.59;;;12.45;75.09
60240;BME280;46102;39.012;-7.064;2024-02-21T02:30:41;99471.59;;;12.47;74.37
60240;BME280;46102;39.012;-7.064;2024-02-21T02:32:45;99477.09;;;12.47;73.86
60240;BME280;46102;39.012;-7.064;2024-02-21T02:34:46;99480.47;;;12.44;74.07
60240;BME280;46102;39.012;-7.064;2024-02-21T02:36:47;99466.50;;;12.40;74.15
60240;BME280;46102;39.012;-7.064;2024-02-21T02:38:49;99474.56;;;12.37;74.25
60240;BME280;46102;39.012;-7.064;2024-02-21T02:40:50;99455.59;;;12.35;74.57
60240;BME280;46102;39.012;-7.064;2024-02-21T02:42:51;99455.91;;;12.34;74.62
60240;BME280;46102;39.012;-7.064;2024-02-21T02:44:52;99457.25;;;12.36;74.95
60240;BME280;46102;39.012;-7.064;2024-02-21T02:46:52;99455.81;;;12.39;74.13
60240;BME280;46102;39.012;-7.064;2024-02-21T02:48:53;99462.66;;;12.41;73.93
60240;BME280;46102;39.012;-7.064;2024-02-21T02:50:54;99461.50;;;12.42;73.28
60240;BME280;46102;39.012;-7.064;2024-02-21T02:52:55;99466.84;;;12.39;74.00
60240;BME280;46102;39.012;-7.064;2024-02-21T02:54:56;99460.31;;;12.35;74.22
60240;BME280;46102;39.012;-7.064;2024-02-21T02:56:56;99464.28;;;12.28;74.63
60240;BME280;46102;39.012;-7.064;2024-02-21T02:58:57;99465.41;;;12.27;74.94
60240;BME280;46102;39.012;-7.064;2024-02-21T03:00:58;99461.81;;;12.27;75.14
60240;BME280;46102;39.012;-7.064;2024-02-21T03:02:59;99467.13;;;12.23;76.04
60240;BME280;46102;39.012;-7.064;2024-02-21T03:04:59;99458.06;;;12.23;76.44
60240;BME280;46102;39.012;-7.064;2024-02-21T03:07:00;99453.09;;;12.25;76.31
60240;BME280;46102;39.012;-7.064;2024-02-21T03:09:01;99467.94;;;12.24;75.79
60240;BME280;46102;39.012;-7.064;2024-02-21T03:11:01;99458.47;;;12.16;76.18
60240;BME280;46102;39.012;-7.064;2024-02-21T03:13:02;99467.31;;;12.13;76.39
60240;BME280;46102;39.012;-7.064;2024-02-21T03:15:04;99463.47;;;12.14;76.06
60240;BME280;46102;39.012;-7.064;2024-02-21T03:17:05;99462.16;;;12.12;77.22
60240;BME280;46102;39.012;-7.064;2024-02-21T03:19:06;99460.09;;;12.03;77.16
60240;BME280;46102;39.012;-7.064;2024-02-21T03:21:07;99466.63;;;11.94;78.02
60240;BME280;46102;39.012;-7.064;2024-02-21T03:23:08;99464.25;;;11.87;78.58
60240;BME280;46102;39.012;-7.064;2024-02-21T03:25:09;99460.16;;;11.84;78.98
60240;BME280;46102;39.012;-7.064;2024-02-21T03:27:11;99458.81;;;11.82;79.30
60240;BME280;46102;39.012;-7.064;2024-02-21T03:29:11;99467.38;;;11.80;79.97
60240;BME280;46102;39.012;-7.064;2024-02-21T03:31:12;99460.25;;;11.79;79.76
60240;BME280;46102;39.012;-7.064;2024-02-21T03:33:14;99466.34;;;11.76;79.82
60240;BME280;46102;39.012;-7.064;2024-02-21T03:35:15;99468.97;;;11.67;80.29
60240;BME280;46102;39.012;-7.064;2024-02-21T03:37:15;99466.53;;;11.66;80.47
60240;BME280;46102;39.012;-7.064;2024-02-21T03:39:16;99475.91;;;11.65;81.41
60240;BME280;46102;39.012;-7.064;2024-02-21T03:41:17;99466.09;;;11.59;81.54
60240;BME280;46102;39.012;-7.064;2024-02-21T03:43:18;99467.31;;;11.53;81.69
60240;BME280;46102;39.012;-7.064;2024-02-21T03:45:18;99471.47;;;11.50;82.15
60240;BME280;46102;39.012;-7.064;2024-02-21T03:47:20;99476.38;;;11.53;82.61
60240;BME280;46102;39.012;-7.064;2024-02-21T03:49:20;99473.41;;;11.50;82.76
60240;BME280;46102;39.012;-7.064;2024-02-21T03:51:21;99477.28;;;11.49;82.58
60240;BME280;46102;39.012;-7.064;2024-02-21T03:53:22;99476.78;;;11.46;82.89
60240;BME280;46102;39.012;-7.064;2024-02-21T03:55:23;99479.53;;;11.46;83.35
60240;BME280;46102;39.012;-7.064;2024-02-21T03:57:24;99475.66;;;11.48;83.25
60240;BME280;46102;39.012;-7.064;2024-02-21T03:59:25;99476.44;;;11.48;83.32
60240;BME280;46102;39.012;-7.064;2024-02-21T04:01:25;99479.72;;;11.50;83.26
60240;BME280;46102;39.012;-7.064;2024-02-21T04:03:26;99474.22;;;11.50;83.34
60240;BME280;46102;39.012;-7.064;2024-02-21T04:05:27;99469.25;;;11.52;84.04
60240;BME280;46102;39.012;-7.064;2024-02-21T04:07:28;99467.31;;;11.53;84.22
60240;BME280;46102;39.012;-7.064;2024-02-21T04:09:28;99467.31;;;11.53;84.64
60240;BME280;46102;39.012;-7.064;2024-02-21T04:11:29;99456.31;;;11.53;84.74
60240;BME280;46102;39.012;-7.064;2024-02-21T04:13:30;99455.50;;;11.52;84.28
60240;BME280;46102;39.012;-7.064;2024-02-21T04:15:31;99441.47;;;11.54;83.83
60240;BME280;46102;39.012;-7.064;2024-02-21T04:17:31;99442.09;;;11.51;83.88
60240;BME280;46102;39.012;-7.064;2024-02-21T04:19:32;99435.03;;;11.44;83.85
60240;BME280;46102;39.012;-7.064;2024-02-21T04:21:34;99430.13;;;11.41;83.66
60240;BME280;46102;39.012;-7.064;2024-02-21T04:23:35;99431.88;;;11.37;83.71
60240;BME280;46102;39.012;-7.064;2024-02-21T04:25:36;99419.44;;;11.26;84.29
60240;BME280;46102;39.012;-7.064;2024-02-21T04:27:40;99417.38;;;11.18;85.23
60240;BME280;46102;39.012;-7.064;2024-02-21T04:29:41;99414.38;;;11.14;85.43
60240;BME280;46102;39.012;-7.064;2024-02-21T04:31:42;99407.00;;;11.15;85.62
60240;BME280;46102;39.012;-7.064;2024-02-21T04:33:42;99409.22;;;11.13;85.50
60240;BME280;46102;39.012;-7.064;2024-02-21T04:35:43;99407.56;;;11.12;85.79
60240;BME280;46102;39.012;-7.064;2024-02-21T04:37:44;99406.47;;;11.13;85.74
60240;BME280;46102;39.012;-7.064;2024-02-21T04:39:45;99405.34;;;11.14;85.79
60240;BME280;46102;39.012;-7.064;2024-02-21T04:41:45;99403.34;;;11.19;84.94
60240;BME280;46102;39.012;-7.064;2024-02-21T04:43:47;99399.47;;;11.20;84.45
60240;BME280;46102;39.012;-7.064;2024-02-21T04:45:50;99407.41;;;11.22;84.52
60240;BME280;46102;39.012;-7.064;2024-02-21T04:47:51;99407.94;;;11.24;84.11
60240;BME280;46102;39.012;-7.064;2024-02-21T04:49:52;99408.13;;;11.28;83.50
60240;BME280;46102;39.012;-7.064;2024-02-21T04:51:53;99412.00;;;11.27;83.48
60240;BME280;46102;39.012;-7.064;2024-02-21T04:53:54;99418.91;;;11.24;84.14
60240;BME280;46102;39.012;-7.064;2024-02-21T04:55:54;99415.66;;;11.22;84.23
60240;BME280;46102;39.012;-7.064;2024-02-21T04:57:55;99412.59;;;11.23;83.43
60240;BME280;46102;39.012;-7.064;2024-02-21T04:59:56;99418.00;;;11.29;82.50
60240;BME280;46102;39.012;-7.064;2024-02-21T05:01:57;99413.03;;;11.31;81.85
60240;BME280;46102;39.012;-7.064;2024-02-21T05:03:57;99424.53;;;11.33;82.46
60240;BME280;46102;39.012;-7.064;2024-02-21T05:05:59;99427.56;;;11.31;83.40
60240;BME280;46102;39.012;-7.064;2024-02-21T05:07:59;99428.38;;;11.32;83.01
60240;BME280;46102;39.012;-7.064;2024-02-21T05:10:00;99427.56;;;11.31;83.09
60240;BME280;46102;39.012;-7.064;2024-02-21T05:12:02;99436.91;;;11.30;82.88
60240;BME280;46102;39.012;-7.064;2024-02-21T05:14:03;99431.50;;;11.25;83.08
60240;BME280;46102;39.012;-7.064;2024-02-21T05:16:05;99433.56;;;11.19;83.69
60240;BME280;46102;39.012;-7.064;2024-02-21T05:18:05;99438.81;;;11.16;84.65
60240;BME280;46102;39.012;-7.064;2024-02-21T05:20:07;99437.19;;;11.15;84.77
60240;BME280;46102;39.012;-7.064;2024-02-21T05:22:07;99435.25;;;11.15;85.53
60240;BME280;46102;39.012;-7.064;2024-02-21T05:24:08;99450.94;;;11.15;86.48
60240;BME280;46102;39.012;-7.064;2024-02-21T05:26:09;99448.75;;;11.12;88.90
60240;BME280;46102;39.012;-7.064;2024-02-21T05:28:10;99440.53;;;11.12;88.72
60240;BME280;46102;39.012;-7.064;2024-02-21T05:30:12;99456.28;;;11.06;90.46
60240;BME280;46102;39.012;-7.064;2024-02-21T05:32:12;99443.97;;;11.03;91.17
60240;BME280;46102;39.012;-7.064;2024-02-21T05:34:13;99446.72;;;11.03;91.86
60240;BME280;46102;39.012;-7.064;2024-02-21T05:36:14;99447.81;;;11.02;92.14
60240;BME280;46102;39.012;-7.064;2024-02-21T05:38:15;99447.00;;;11.02;92.30
60240;BME280;46102;39.012;-7.064;2024-02-21T05:40:16;99450.84;;;11.01;93.11
60240;BME280;46102;39.012;-7.064;2024-02-21T05:42:16;99439.06;;;11.00;93.42
60240;BME280;46102;39.012;-7.064;2024-02-21T05:44:18;99445.16;;;10.97;94.39
60240;BME280;46102;39.012;-7.064;2024-02-21T05:46:19;99437.94;;;11.01;93.90
60240;BME280;46102;39.012;-7.064;2024-02-21T05:48:21;99452.25;;;10.98;94.16
60240;BME280;46102;39.012;-7.064;2024-02-21T05:50:22;99448.69;;;10.98;94.26
60240;BME280;46102;39.012;-7.064;2024-02-21T05:52:24;99445.16;;;10.97;94.41
60240;BME280;46102;39.012;-7.064;2024-02-21T05:54:24;99447.91;;;10.97;93.97
60240;BME280;46102;39.012;-7.064;2024-02-21T05:56:25;99445.75;;;10.94;94.17
60240;BME280;46102;39.012;-7.064;2024-02-21T05:58:26;99441.13;;;10.90;94.45
60240;BME280;46102;39.012;-7.064;2024-02-21T06:00:27;99442.25;;;10.89;94.42
60240;BME280;46102;39.012;-7.064;2024-02-21T06:02:27;99438.47;;;10.84;94.72
60240;BME280;46102;39.012;-7.064;2024-02-21T06:04:28;99435.00;;;10.79;95.14
60240;BME280;46102;39.012;-7.064;2024-02-21T06:06:29;99432.91;;;10.71;96.02
60240;BME280;46102;39.012;-7.064;2024-02-21T06:08:29;99423.94;;;10.65;96.06
60240;BME280;46102;39.012;-7.064;2024-02-21T06:10:30;99426.75;;;10.60;95.94
60240;BME280;46102;39.012;-7.064;2024-02-21T06:12:31;99433.66;;;10.57;96.42
60240;BME280;46102;39.012;-7.064;2024-02-21T06:14:32;99439.22;;;10.52;97.40
60240;BME280;46102;39.012;-7.064;2024-02-21T06:16:32;99440.31;;;10.51;97.58
60240;BME280;46102;39.012;-7.064;2024-02-21T06:18:35;99442.25;;;10.51;97.33
60240;BME280;46102;39.012;-7.064;2024-02-21T06:20:36;99457.91;;;10.50;96.92
60240;BME280;46102;39.012;-7.064;2024-02-21T06:22:39;99454.34;;;10.50;97.29
60240;BME280;46102;39.012;-7.064;2024-02-21T06:24:40;99460.13;;;10.48;97.88
60240;BME280;46102;39.012;-7.064;2024-02-21T06:26:41;99466.13;;;10.50;98.29
60240;BME280;46102;39.012;-7.064;2024-02-21T06:28:41;99460.34;;;10.52;98.59
60240;BME280;46102;39.012;-7.064;2024-02-21T06:30:43;99473.75;;;10.53;99.34
60240;BME280;46102;39.012;-7.064;2024-02-21T06:32:44;99466.84;;;10.56;99.72
60240;BME280;46102;39.012;-7.064;2024-02-21T06:34:44;99468.50;;;10.57;100.00
60240;BME280;46102;39.012;-7.064;2024-02-21T06:36:45;99469.31;;;10.57;100.00
60240;BME280;46102;39.012;-7.064;2024-02-21T06:38:46;99459.16;;;10.58;100.00
60240;BME280;46102;39.012;-7.064;2024-02-21T06:40:47;99460.28;;;10.57;100.00
60240;BME280;46102;39.012;-7.064;2024-02-21T06:42:50;99458.34;;;10.57;100.00
60240;BME280;46102;39.012;-7.064;2024-02-21T06:44:51;99457.53;;;10.57;100.00
60240;BME280;46102;39.012;-7.064;2024-02-21T06:46:52;99458.34;;;10.57;100.00
60240;BME280;46102;39.012;-7.064;2024-02-21T06:48:53;99457.53;;;10.57;100.00
60240;BME280;46102;39.012;-7.064;2024-02-21T06:50:53;99454.56;;;10.53;100.00
60240;BME280;46102;39.012;-7.064;2024-02-21T06:52:54;99463.09;;;10.52;100.00
60240;BME280;46102;39.012;-7.064;2024-02-21T06:54:55;99462.56;;;10.50;100.00
60240;BME280;46102;39.012;-7.064;2024-02-21T06:56:56;99468.59;;;10.52;100.00
60240;BME280;46102;39.012;-7.064;2024-02-21T06:58:57;99469.09;;;10.54;100.00
60240;BME280;46102;39.012;-7.064;2024-02-21T07:00:58;99458.63;;;10.56;100.00
60240;BME280;46102;39.012;-7.064;2024-02-21T07:02:59;99464.94;;;10.56;100.00
60240;BME280;46102;39.012;-7.064;2024-02-21T07:04:59;99461.09;;;10.57;100.00
60240;BME280;46102;39.012;-7.064;2024-02-21T07:07:00;99461.59;;;10.59;100.00
60240;BME280;46102;39.012;-7.064;2024-02-21T07:09:01;99463.53;;;10.59;100.00
60240;BME280;46102;39.012;-7.064;2024-02-21T07:11:02;99464.88;;;10.61;100.00
60240;BME280;46102;39.012;-7.064;2024-02-21T07:13:03;99465.13;;;10.65;100.00
60240;BME280;46102;39.012;-7.064;2024-02-21T07:15:04;99470.28;;;10.67;100.00
60240;BME280;46102;39.012;-7.064;2024-02-21T07:17:05;99470.88;;;10.63;100.00
60240;BME280;46102;39.012;-7.064;2024-02-21T07:19:06;99470.88;;;10.63;100.00
60240;BME280;46102;39.012;-7.064;2024-02-21T07:21:07;99475.78;;;10.67;100.00
60240;BME280;46102;39.012;-7.064;2024-02-21T07:23:08;99482.31;;;10.71;100.00
60240;BME280;46102;39.012;-7.064;2024-02-21T07:25:09;99485.94;;;10.85;100.00
60240;BME280;46102;39.012;-7.064;2024-02-21T07:27:10;99489.09;;;11.49;97.50
60240;BME280;46102;39.012;-7.064;2024-02-21T07:29:11;99495.25;;;12.20;91.61
60240;BME280;46102;39.012;-7.064;2024-02-21T07:31:12;99485.19;;;13.30;83.93
60240;BME280;46102;39.012;-7.064;2024-02-21T07:33:12;99485.91;;;14.78;73.00
60240;BME280;46102;39.012;-7.064;2024-02-21T07:35:13;99486.13;;;15.98;64.46
60240;BME280;46102;39.012;-7.064;2024-02-21T07:37:14;99489.31;;;16.56;60.56
60240;BME280;46102;39.012;-7.064;2024-02-21T07:39:15;99488.88;;;17.05;57.10
60240;BME280;46102;39.012;-7.064;2024-02-21T07:41:15;99497.28;;;16.58;58.00
60240;BME280;46102;39.012;-7.064;2024-02-21T07:43:16;99503.28;;;15.83;60.59
60240;BME280;46102;39.012;-7.064;2024-02-21T07:45:17;99509.66;;;15.40;63.19
60240;BME280;46102;39.012;-7.064;2024-02-21T07:47:18;99509.47;;;14.84;66.24
60240;BME280;46102;39.012;-7.064;2024-02-21T07:49:20;99517.09;;;14.30;69.74
60240;BME280;46102;39.012;-7.064;2024-02-21T07:51:21;99525.94;;;13.87;73.31
60240;BME280;46102;39.012;-7.064;2024-02-21T07:53:21;99522.31;;;13.55;75.49
60240;BME280;46102;39.012;-7.064;2024-02-21T07:55:22;99529.28;;;13.30;77.24
60240;BME280;46102;39.012;-7.064;2024-02-21T07:57:23;99532.47;;;13.09;79.79
60240;BME280;46102;39.012;-7.064;2024-02-21T07:59:24;99538.81;;;12.96;81.45
60240;BME280;46102;39.012;-7.064;2024-02-21T08:01:24;99546.47;;;12.85;82.23
60240;BME280;46102;39.012;-7.064;2024-02-21T08:03:25;99535.88;;;12.79;83.12
60240;BME280;46102;39.012;-7.064;2024-02-21T08:05:26;99547.53;;;12.76;83.16
60240;BME280;46102;39.012;-7.064;2024-02-21T08:07:27;99553.97;;;12.71;82.82
60240;BME280;46102;39.012;-7.064;2024-02-21T08:09:30;99552.63;;;12.68;83.01
60240;BME280;46102;39.012;-7.064;2024-02-21T08:11:30;99549.38;;;12.66;83.76
60240;BME280;46102;39.012;-7.064;2024-02-21T08:13:31;99548.16;;;12.59;84.06
60240;BME280;46102;39.012;-7.064;2024-02-21T08:15:32;99535.50;;;12.58;85.26
60240;BME280;46102;39.012;-7.064;2024-02-21T08:17:34;99544.56;;;12.58;85.79
60240;BME280;46102;39.012;-7.064;2024-02-21T08:19:35;99539.56;;;12.60;86.87
60240;BME280;46102;39.012;-7.064;2024-02-21T08:21:35;99531.41;;;12.69;86.93
60240;BME280;46102;39.012;-7.064;2024-02-21T08:23:36;99534.78;;;12.80;86.56
60240;BME280;46102;39.012;-7.064;2024-02-21T08:25:37;99534.25;;;12.91;86.38
60240;BME280;46102;39.012;-7.064;2024-02-21T08:27:38;99534.84;;;13.02;86.74
60240;BME280;46102;39.012;-7.064;2024-02-21T08:29:38;99532.97;;;13.11;86.65
60240;BME280;46102;39.012;-7.064;2024-02-21T08:31:39;99531.41;;;13.19;86.33
60240;BME280;46102;39.012;-7.064;2024-02-21T08:33:40;99533.75;;;13.26;86.23
60240;BME280;46102;39.012;-7.064;2024-02-21T08:35:41;99533.03;;;13.34;86.22
60240;BME280;46102;39.012;-7.064;2024-02-21T08:37:41;99538.41;;;13.39;86.33
60240;BME280;46102;39.012;-7.064;2024-02-21T08:39:43;99530.88;;;13.45;86.53
60240;BME280;46102;39.012;-7.064;2024-02-21T08:41:44;99531.22;;;13.52;86.70
60240;BME280;46102;39.012;-7.064;2024-02-21T08:43:45;99535.66;;;13.62;86.65
60240;BME280;46102;39.012;-7.064;2024-02-21T08:45:46;99534.13;;;13.69;86.85
60240;BME280;46102;39.012;-7.064;2024-02-21T08:47:46;99533.97;;;13.74;86.90
60240;BME280;46102;39.012;-7.064;2024-02-21T08:49:47;99535.16;;;13.82;87.03
60240;BME280;46102;39.012;-7.064;2024-02-21T08:51:48;99533.59;;;13.90;87.08
60240;BME280;46102;39.012;-7.064;2024-02-21T08:53:49;99522.28;;;14.00;86.76
60240;BME280;46102;39.012;-7.064;2024-02-21T08:55:50;99529.94;;;14.03;86.55
60240;BME280;46102;39.012;-7.064;2024-02-21T08:57:51;99532.06;;;14.06;87.06
60240;BME280;46102;39.012;-7.064;2024-02-21T08:59:51;99537.13;;;14.13;87.08
60240;BME280;46102;39.012;-7.064;2024-02-21T09:01:52;99536.88;;;14.23;86.92
60240;BME280;46102;39.012;-7.064;2024-02-21T09:03:53;99535.75;;;14.33;86.52
60240;BME280;46102;39.012;-7.064;2024-02-21T09:05:54;99535.31;;;14.40;86.61
60240;BME280;46102;39.012;-7.064;2024-02-21T09:07:55;99531.63;;;14.53;85.71
60240;BME280;46102;39.012;-7.064;2024-02-21T09:09:55;99540.78;;;14.62;85.08
60240;BME280;46102;39.012;-7.064;2024-02-21T09:11:56;99540.31;;;14.69;84.83
60240;BME280;46102;39.012;-7.064;2024-02-21T09:13:57;99535.44;;;14.74;83.95
60240;BME280;46102;39.012;-7.064;2024-02-21T09:15:58;99549.25;;;14.83;83.20
60240;BME280;46102;39.012;-7.064;2024-02-21T09:17:59;99536.94;;;14.89;82.64
60240;BME280;46102;39.012;-7.064;2024-02-21T09:20:00;99536.63;;;14.91;82.07
60240;BME280;46102;39.012;-7.064;2024-02-21T09:22:03;99542.97;;;15.00;82.17
60240;BME280;46102;39.012;-7.064;2024-02-21T09:24:05;99536.81;;;15.12;81.49
60240;BME280;46102;39.012;-7.064;2024-02-21T09:26:06;99548.03;;;15.24;80.72
60240;BME280;46102;39.012;-7.064;2024-02-21T09:28:07;99535.50;;;15.35;80.80
60240;BME280;46102;39.012;-7.064;2024-02-21T09:30:08;99549.03;;;15.54;80.26
60240;BME280;46102;39.012;-7.064;2024-02-21T09:32:08;99540.22;;;15.70;78.82
60240;BME280;46102;39.012;-7.064;2024-02-21T09:34:09;99540.06;;;15.84;78.10
60240;BME280;46102;39.012;-7.064;2024-02-21T09:36:11;99543.13;;;15.91;77.68
60240;BME280;46102;39.012;-7.064;2024-02-21T09:38:12;99544.22;;;16.07;76.83
60240;BME280;46102;39.012;-7.064;2024-02-21T09:40:15;99549.72;;;16.24;76.19
60240;BME280;46102;39.012;-7.064;2024-02-21T09:42:20;99551.25;;;16.52;75.40
60240;BME280;46102;39.012;-7.064;2024-02-21T09:44:21;99557.47;;;16.78;73.78
60240;BME280;46102;39.012;-7.064;2024-02-21T09:46:39;99552.63;;;17.05;71.93
60240;BME280;46102;39.012;-7.064;2024-02-21T09:48:58;99547.28;;;17.21;70.43
60240;BME280;46102;39.012;-7.064;2024-02-21T09:51:05;99546.53;;;17.33;69.73
60240;BME280;46102;39.012;-7.064;2024-02-21T09:53:07;99552.63;;;17.47;69.30
60240;BME280;46102;39.012;-7.064;2024-02-21T09:55:10;99556.16;;;17.56;68.92
60240;BME280;46102;39.012;-7.064;2024-02-21T09:57:13;99549.06;;;17.80;67.81
60240;BME280;46102;39.012;-7.064;2024-02-21T09:59:15;99539.78;;;17.97;66.80
60240;BME280;46102;39.012;-7.064;2024-02-21T10:01:16;99545.03;;;18.10;65.71
60240;BME280;46102;39.012;-7.064;2024-02-21T10:03:17;99534.03;;;18.02;64.72
60240;BME280;46102;39.012;-7.064;2024-02-21T10:05:18;99535.16;;;18.01;65.30
60240;BME280;46102;39.012;-7.064;2024-02-21T10:07:18;99542.59;;;18.09;65.28
60240;BME280;46102;39.012;-7.064;2024-02-21T10:09:24;99550.75;;;18.39;63.10
60240;BME280;46102;39.012;-7.064;2024-02-21T10:11:28;99550.78;;;18.76;61.27
60240;BME280;46102;39.012;-7.064;2024-02-21T10:13:29;99553.88;;;19.11;59.57
60240;BME280;46102;39.012;-7.064;2024-02-21T10:15:30;99552.53;;;19.45;58.04
60240;BME280;46102;39.012;-7.064;2024-02-21T10:17:32;99556.75;;;19.67;57.20
60240;BME280;46102;39.012;-7.064;2024-02-21T10:19:33;99556.47;;;19.85;56.46
60240;BME280;46102;39.012;-7.064;2024-02-21T10:21:34;99554.63;;;20.05;55.72
60240;BME280;46102;39.012;-7.064;2024-02-21T10:23:42;99552.34;;;20.23;55.07
60240;BME280;46102;39.012;-7.064;2024-02-21T10:25:43;99555.47;;;20.37;54.47
60240;BME280;46102;39.012;-7.064;2024-02-21T10:27:48;99546.31;;;20.36;55.26
60240;BME280;46102;39.012;-7.064;2024-02-21T10:29:49;99548.47;;;20.43;55.12
60240;BME280;46102;39.012;-7.064;2024-02-21T10:31:52;99556.72;;;20.24;54.70
60240;BME280;46102;39.012;-7.064;2024-02-21T10:34:00;99558.16;;;20.17;54.39